Time;durP1;ratioP1;P1;durP2;ratioP2;P2;SDS_P1;SDS_P2;PMS_P1;PMS_P2;Temp;Humidity;BMP_temperature;BMP_pressure;BME280_temperature;BME280_humidity;BME280_pressure;Samples;Min_cycle;Max_cycle;Signal;HPM_P1;HPM_P2
2023/04/29 00:00:56;;;;;;;1.67;1.00;;;;;;;;;;5086360;28;20218;-93
2023/04/29 00:03:27;;;;;;;0.90;0.90;;;;;;;;;;5073211;28;20202;-91
2023/04/29 00:05:56;;;;;;;1.77;1.00;;;;;;;;;;5073156;28;20241;-92
2023/04/29 00:08:36;;;;;;;2.40;1.10;;;;;;;;;;5074593;28;20230;-92
2023/04/29 00:11:09;;;;;;;0.93;0.93;;;;;;;;;;5073881;28;20488;-94
2023/04/29 00:13:38;;;;;;;1.70;1.67;;;;;;;;;;5076932;28;20257;-94
2023/04/29 00:16:12;;;;;;;0.87;0.87;;;;;;;;;;5076840;28;20333;-94
2023/04/29 00:18:40;;;;;;;1.00;1.00;;;;;;;;;;5076711;28;20281;-94
2023/04/29 00:21:17;;;;;;;1.10;1.10;;;;;;;;;;5077566;28;20278;-93
2023/04/29 00:23:47;;;;;;;1.40;0.93;;;;;;;;;;5082994;28;20199;-93
2023/04/29 00:26:18;;;;;;;0.93;0.60;;;;;;;;;;5086767;28;20214;-92
2023/04/29 00:29:02;;;;;;;0.87;0.87;;;;;;;;;;5099975;28;20225;-93
2023/04/29 00:31:36;;;;;;;0.83;0.83;;;;;;;;;;5094313;28;20203;-94
2023/04/29 00:34:08;;;;;;;1.13;1.00;;;;;;;;;;5077840;28;20244;-93
2023/04/29 00:36:37;;;;;;;0.80;0.67;;;;;;;;;;5077256;28;20194;-92
2023/04/29 00:39:05;;;;;;;0.47;0.47;;;;;;;;;;5077922;28;20290;-92
2023/04/29 00:41:32;;;;;;;0.73;0.60;;;;;;;;;;5077368;28;20690;-92
2023/04/29 00:44:04;;;;;;;1.23;0.93;;;;;;;;;;5077223;28;20202;-92
2023/04/29 00:46:33;;;;;;;0.87;0.60;;;;;;;;;;5076419;28;20202;-93
2023/04/29 00:49:03;;;;;;;0.90;0.60;;;;;;;;;;5078007;28;20222;-92
2023/04/29 00:51:35;;;;;;;0.80;0.80;;;;;;;;;;5077420;28;20549;-92
2023/04/29 00:54:03;;;;;;;0.70;0.70;;;;;;;;;;5076598;28;20605;-92
2023/04/29 00:56:32;;;;;;;2.17;1.17;;;;;;;;;;5076064;28;20221;-92
2023/04/29 00:59:01;;;;;;;0.77;0.77;;;;;;;;;;5075665;28;20218;-93
2023/04/29 01:01:34;;;;;;;0.67;0.57;;;;;;;;;;5076087;28;20266;-92
2023/04/29 01:04:03;;;;;;;0.60;0.60;;;;;;;;;;5085045;28;20191;-94
2023/04/29 01:06:37;;;;;;;0.47;0.40;;;;;;;;;;5078033;28;20199;-91
2023/04/29 01:09:17;;;;;;;2.03;1.93;;;;;;;;;;5079255;28;20199;-91
2023/04/29 01:11:50;;;;;;;0.60;0.60;;;;;;;;;;5077467;28;20218;-91
2023/04/29 01:14:18;;;;;;;0.80;0.80;;;;;;;;;;5076882;28;20209;-92
2023/04/29 01:16:50;;;;;;;1.00;0.97;;;;;;;;;;5076709;28;20654;-93
2023/04/29 01:19:39;;;;;;;0.80;0.80;;;;;;;;;;5076296;28;20194;-92
2023/04/29 01:22:09;;;;;;;1.67;0.90;;;;;;;;;;5075975;28;20281;-92
2023/04/29 01:24:41;;;;;;;2.80;0.87;;;;;;;;;;5075595;28;20229;-93
2023/04/29 01:27:12;;;;;;;1.07;0.97;;;;;;;;;;5079571;28;20304;-92
2023/04/29 01:29:44;;;;;;;0.33;0.33;;;;;;;;;;5081901;28;20282;-92
2023/04/29 01:32:14;;;;;;;11.20;1.33;;;;;;;;;;5076709;28;20230;-93
2023/04/29 01:34:51;;;;;;;0.67;0.67;;;;;;;;;;5075950;28;20260;-92
2023/04/29 01:37:20;;;;;;;2.30;0.70;;;;;;;;;;5077386;28;20195;-92
2023/04/29 01:39:58;;;;;;;0.67;0.67;;;;;;;;;;5076310;28;20706;-93
2023/04/29 01:42:31;;;;;;;0.40;0.40;;;;;;;;;;5076223;28;20280;-92
2023/04/29 01:45:01;;;;;;;1.33;1.23;;;;;;;;;;5075992;28;20259;-94
2023/04/29 01:47:33;;;;;;;0.50;0.50;;;;;;;;;;5077133;28;20221;-92
2023/04/29 01:50:01;;;;;;;3.03;0.47;;;;;;;;;;5076631;28;20637;-93
2023/04/29 01:52:32;;;;;;;0.43;0.43;;;;;;;;;;5078331;28;20250;-93
2023/04/29 01:55:10;;;;;;;1.07;1.00;;;;;;;;;;5080332;28;20215;-92
2023/04/29 01:57:40;;;;;;;2.63;1.73;;;;;;;;;;5083800;28;20222;-91
2023/04/29 02:00:10;;;;;;;0.40;0.40;;;;;;;;;;5076711;28;20233;-91
2023/04/29 02:02:38;;;;;;;2.37;0.93;;;;;;;;;;5077732;28;20219;-92
2023/04/29 02:08:08;;;;;;;0.60;0.60;;;;;;;;;;5063782;28;20221;-92
2023/04/29 02:10:39;;;;;;;0.97;0.97;;;;;;;;;;5056325;28;20222;-92
2023/04/29 02:13:07;;;;;;;0.50;0.50;;;;;;;;;;5061113;28;20288;-90
2023/04/29 02:15:36;;;;;;;0.70;0.70;;;;;;;;;;5067670;28;20226;-92
2023/04/29 02:18:05;;;;;;;0.93;0.93;;;;;;;;;;5062746;28;20564;-90
2023/04/29 02:20:32;;;;;;;1.13;1.10;;;;;;;;;;5062454;28;20760;-91
2023/04/29 02:23:00;;;;;;;0.37;0.37;;;;;;;;;;5058229;28;20199;-92
2023/04/29 02:25:28;;;;;;;0.57;0.40;;;;;;;;;;5055732;28;20590;-92
2023/04/29 02:27:57;;;;;;;0.83;0.73;;;;;;;;;;5056386;28;20274;-92
2023/04/29 02:30:25;;;;;;;1.23;1.13;;;;;;;;;;5056766;28;20573;-91
2023/04/29 02:32:56;;;;;;;0.60;0.60;;;;;;;;;;5058450;28;20254;-92
2023/04/29 02:35:31;;;;;;;0.57;0.57;;;;;;;;;;5042408;28;20206;-93
2023/04/29 02:37:59;;;;;;;0.67;0.67;;;;;;;;;;5036414;28;20290;-92
2023/04/29 02:40:27;;;;;;;1.00;0.80;;;;;;;;;;5035372;28;20199;-92
2023/04/29 02:42:58;;;;;;;0.73;0.73;;;;;;;;;;5035155;28;20220;-92
2023/04/29 02:45:29;;;;;;;0.23;0.23;;;;;;;;;;5035301;28;20196;-93
2023/04/29 02:47:57;;;;;;;0.97;0.80;;;;;;;;;;5034941;28;20204;-92
2023/04/29 02:50:25;;;;;;;0.70;0.70;;;;;;;;;;5034086;28;20207;-92
2023/04/29 02:52:53;;;;;;;1.60;0.80;;;;;;;;;;5034349;28;20314;-92
2023/04/29 02:55:20;;;;;;;1.00;1.00;;;;;;;;;;5036446;28;20265;-92
2023/04/29 02:57:48;;;;;;;0.93;0.70;;;;;;;;;;5035248;28;20223;-92
2023/04/29 03:00:18;;;;;;;0.57;0.57;;;;;;;;;;5035382;28;20204;-91
2023/04/29 03:02:48;;;;;;;0.70;0.70;;;;;;;;;;5035822;28;20207;-92
2023/04/29 03:05:16;;;;;;;0.80;0.80;;;;;;;;;;5035612;28;20291;-92
2023/04/29 03:07:44;;;;;;;3.17;1.13;;;;;;;;;;5044657;28;20233;-92
2023/04/29 03:10:12;;;;;;;0.57;0.57;;;;;;;;;;5054346;28;20253;-92
2023/04/29 03:12:39;;;;;;;0.70;0.70;;;;;;;;;;5054396;28;20234;-91
2023/04/29 03:15:09;;;;;;;0.50;0.50;;;;;;;;;;5054129;28;20192;-91
2023/04/29 03:17:38;;;;;;;1.33;0.83;;;;;;;;;;5053925;28;20203;-92
2023/04/29 03:20:07;;;;;;;6.40;1.40;;;;;;;;;;5054653;28;20653;-91
2023/04/29 03:22:36;;;;;;;1.17;1.17;;;;;;;;;;5054079;28;20623;-92
2023/04/29 03:25:06;;;;;;;0.83;0.83;;;;;;;;;;5054653;28;20225;-91
2023/04/29 03:27:34;;;;;;;1.43;1.33;;;;;;;;;;5054290;28;20226;-92
2023/04/29 03:30:02;;;;;;;2.70;1.73;;;;;;;;;;5053839;28;20211;-91
2023/04/29 03:32:36;;;;;;;1.00;1.00;;;;;;;;;;5063851;28;20199;-91
2023/04/29 03:35:08;;;;;;;0.67;0.67;;;;;;;;;;5073071;28;20259;-92
2023/04/29 03:37:35;;;;;;;0.87;0.87;;;;;;;;;;5072153;28;20233;-91
2023/04/29 03:40:05;;;;;;;2.47;1.20;;;;;;;;;;5064376;28;20207;-90
2023/04/29 03:42:33;;;;;;;1.50;1.43;;;;;;;;;;5055941;28;20206;-94
2023/04/29 03:45:01;;;;;;;2.23;1.13;;;;;;;;;;5056088;28;20203;-93
2023/04/29 03:47:30;;;;;;;0.80;0.80;;;;;;;;;;5054930;28;20216;-93
2023/04/29 03:49:58;;;;;;;1.23;1.23;;;;;;;;;;5054608;28;20247;-92
2023/04/29 03:52:48;;;;;;;2.87;1.00;;;;;;;;;;5054014;28;20242;-92
2023/04/29 03:55:18;;;;;;;0.70;0.70;;;;;;;;;;5054536;28;20595;-92
2023/04/29 03:57:48;;;;;;;3.30;1.03;;;;;;;;;;5055725;28;20199;-91
2023/04/29 04:00:17;;;;;;;1.97;1.10;;;;;;;;;;5054494;28;20207;-91
2023/04/29 04:03:05;;;;;;;1.43;1.33;;;;;;;;;;5053738;28;20206;-92
2023/04/29 04:05:34;;;;;;;1.20;1.10;;;;;;;;;;5054007;28;20195;-93
2023/04/29 04:08:01;;;;;;;1.43;1.43;;;;;;;;;;5053817;28;20231;-92
2023/04/29 04:10:32;;;;;;;1.07;1.07;;;;;;;;;;5052892;28;20654;-92
2023/04/29 04:12:59;;;;;;;2.33;0.83;;;;;;;;;;5053370;28;20269;-94
2023/04/29 04:15:27;;;;;;;6.80;1.33;;;;;;;;;;5056260;28;20207;-91
2023/04/29 04:17:55;;;;;;;1.50;1.20;;;;;;;;;;5053587;28;20278;-92
2023/04/29 04:20:23;;;;;;;0.97;0.97;;;;;;;;;;5053873;28;20203;-92
2023/04/29 04:22:50;;;;;;;0.90;0.90;;;;;;;;;;5053526;28;20795;-92
2023/04/29 04:25:18;;;;;;;1.23;1.23;;;;;;;;;;5052879;28;20620;-91
2023/04/29 04:27:51;;;;;;;0.90;0.90;;;;;;;;;;5052718;28;20253;-91
2023/04/29 04:30:23;;;;;;;0.77;0.77;;;;;;;;;;5053043;28;20362;-92
2023/04/29 04:32:52;;;;;;;2.60;1.40;;;;;;;;;;5053172;28;20561;-92
2023/04/29 04:35:26;;;;;;;1.60;1.17;;;;;;;;;;5053913;28;20756;-91
2023/04/29 04:37:57;;;;;;;1.57;1.50;;;;;;;;;;5053307;28;20608;-93
2023/04/29 04:40:27;;;;;;;0.70;0.70;;;;;;;;;;5053220;28;20206;-93
2023/04/29 04:42:57;;;;;;;4.83;2.53;;;;;;;;;;5052994;28;20211;-92
2023/04/29 04:45:28;;;;;;;1.47;1.37;;;;;;;;;;5054057;28;20196;-93
2023/04/29 04:48:00;;;;;;;1.70;1.30;;;;;;;;;;5056018;28;20198;-93
2023/04/29 04:50:42;;;;;;;3.07;1.63;;;;;;;;;;5053501;28;20203;-94
2023/04/29 04:53:15;;;;;;;1.97;1.87;;;;;;;;;;5053488;28;20227;-94
2023/04/29 04:55:48;;;;;;;6.33;2.23;;;;;;;;;;5054610;28;20566;-93
2023/04/29 04:58:26;;;;;;;1.67;1.53;;;;;;;;;;5056575;28;20323;-94
2023/04/29 05:00:59;;;;;;;10.23;2.17;;;;;;;;;;5056988;28;20195;-93
2023/04/29 05:03:59;;;;;;;3.13;1.93;;;;;;;;;;5057491;28;20214;-93
2023/04/29 05:06:34;;;;;;;2.97;2.57;;;;;;;;;;5054262;28;20249;-93
2023/04/29 05:09:18;;;;;;;4.13;2.07;;;;;;;;;;5056444;28;20218;-91
2023/04/29 05:11:46;;;;;;;5.00;2.07;;;;;;;;;;5056581;28;20222;-94
2023/04/29 05:14:21;;;;;;;3.10;1.87;;;;;;;;;;5056631;28;20231;-93
2023/04/29 05:16:51;;;;;;;2.63;2.47;;;;;;;;;;5055628;28;20197;-91
2023/04/29 05:19:19;;;;;;;1.53;1.53;;;;;;;;;;5056709;28;20706;-92
2023/04/29 05:21:57;;;;;;;2.60;2.40;;;;;;;;;;5057171;28;20234;-94
2023/04/29 05:24:29;;;;;;;4.37;2.73;;;;;;;;;;5059271;28;20260;-92
2023/04/29 05:27:03;;;;;;;1.97;1.87;;;;;;;;;;5064680;28;20290;-93
2023/04/29 05:29:33;;;;;;;2.20;2.10;;;;;;;;;;5062365;28;20208;-92
2023/04/29 05:32:05;;;;;;;2.07;1.87;;;;;;;;;;5057199;28;20548;-93
2023/04/29 05:37:20;;;;;;;2.67;2.40;;;;;;;;;;5053612;28;20333;-92
2023/04/29 05:39:54;;;;;;;3.37;2.10;;;;;;;;;;5056906;28;20223;-93
2023/04/29 05:42:22;;;;;;;2.90;2.53;;;;;;;;;;5057305;28;20455;-92
2023/04/29 05:44:59;;;;;;;2.23;2.03;;;;;;;;;;5060786;28;20272;-91
2023/04/29 05:47:31;;;;;;;4.83;1.57;;;;;;;;;;5065945;28;20215;-92
2023/04/29 05:50:03;;;;;;;3.97;2.40;;;;;;;;;;5065804;28;20191;-93
2023/04/29 05:52:36;;;;;;;2.07;1.97;;;;;;;;;;5063547;28;20745;-94
2023/04/29 05:55:03;;;;;;;3.07;2.30;;;;;;;;;;5073004;28;20245;-92
2023/04/29 05:57:35;;;;;;;15.47;2.60;;;;;;;;;;5076499;28;20196;-92
2023/04/29 06:00:16;;;;;;;10.83;2.83;;;;;;;;;;5074727;28;20192;-93
2023/04/29 06:03:01;;;;;;;2.60;2.50;;;;;;;;;;5072058;28;20193;-93
2023/04/29 06:08:34;;;;;;;3.47;2.97;;;;;;;;;;5076358;28;20233;-94
2023/04/29 06:11:05;;;;;;;3.33;2.55;;;;;;;;;;5080627;28;20242;-92
2023/04/29 06:13:43;;;;;;;3.97;3.10;;;;;;;;;;5079076;28;20230;-91
2023/04/29 06:16:27;;;;;;;3.53;2.90;;;;;;;;;;5079494;28;20198;-92
2023/04/29 06:18:59;;;;;;;4.30;3.90;;;;;;;;;;5076889;28;20199;-92
2023/04/29 06:21:32;;;;;;;3.72;3.35;;;;;;;;;;5076466;28;20198;-92
2023/04/29 06:24:06;;;;;;;4.38;3.03;;;;;;;;;;5076586;28;20650;-94
2023/04/29 06:26:40;;;;;;;3.10;2.88;;;;;;;;;;5076352;28;20187;-93
2023/04/29 06:29:08;;;;;;;3.92;3.47;;;;;;;;;;5076400;28;20287;-93
2023/04/29 06:31:46;;;;;;;3.60;3.40;;;;;;;;;;5076767;28;20232;-92
2023/04/29 06:34:16;;;;;;;3.65;3.17;;;;;;;;;;5076865;28;20268;-93
2023/04/29 06:36:59;;;;;;;3.92;3.53;;;;;;;;;;5076643;28;20258;-93
2023/04/29 06:39:28;;;;;;;3.20;2.85;;;;;;;;;;5075019;28;20366;-92
2023/04/29 06:42:04;;;;;;;3.60;3.15;;;;;;;;;;5076728;28;20198;-91
2023/04/29 06:44:35;;;;;;;4.57;3.42;;;;;;;;;;5080912;28;20293;-94
2023/04/29 06:47:11;;;;;;;3.33;3.10;;;;;;;;;;5085750;28;20295;-92
2023/04/29 06:49:46;;;;;;;2.92;2.78;;;;;;;;;;5092279;28;20205;-94
2023/04/29 06:52:39;;;;;;;;;;;;;;;;;;;;;
2023/04/29 06:55:10;;;;;;;3.63;3.33;;;;;;;;;;5078062;28;20222;-94
2023/04/29 06:57:53;;;;;;;3.42;3.03;;;;;;;;;;5077399;28;20199;-94
2023/04/29 07:03:23;;;;;;;5.88;4.45;;;;;;;;;;5064091;28;20202;-92
2023/04/29 07:05:57;;;;;;;5.28;4.18;;;;;;;;;;5079662;28;20213;-91
2023/04/29 07:08:24;;;;;;;3.58;3.20;;;;;;;;;;5077346;28;20234;-92
2023/04/29 07:10:58;;;;;;;4.70;4.10;;;;;;;;;;5077102;28;20249;-93
2023/04/29 07:13:29;;;;;;;3.78;3.45;;;;;;;;;;5080163;28;20252;-93
2023/04/29 07:19:22;;;;;;;3.67;3.38;;;;;;;;;;5082297;28;20209;-93
2023/04/29 07:21:57;;;;;;;3.83;3.53;;;;;;;;;;5079515;28;20201;-91
2023/04/29 07:24:34;;;;;;;5.10;4.28;;;;;;;;;;5076179;28;20218;-94
2023/04/29 07:27:25;;;;;;;3.80;3.50;;;;;;;;;;5074688;28;20198;-94
2023/04/29 07:30:00;;;;;;;4.05;3.75;;;;;;;;;;5076205;28;20218;-93
2023/04/29 07:32:30;;;;;;;3.97;3.65;;;;;;;;;;5079595;28;20190;-93
2023/04/29 07:35:01;;;;;;;4.85;4.13;;;;;;;;;;5085377;28;20234;-92
2023/04/29 07:40:24;;;;;;;7.53;3.80;;;;;;;;;;5080428;28;20248;-92
2023/04/29 07:42:55;;;;;;;4.68;3.42;;;;;;;;;;5080845;28;20202;-91
2023/04/29 07:45:27;;;;;;;3.90;3.58;;;;;;;;;;5080431;28;20199;-92
2023/04/29 07:47:56;;;;;;;3.47;2.80;;;;;;;;;;5079443;28;20206;-92
2023/04/29 07:50:29;;;;;;;3.50;3.03;;;;;;;;;;5076490;28;20199;-93
2023/04/29 07:53:00;;;;;;;5.10;4.57;;;;;;;;;;5074969;28;20219;-93
2023/04/29 07:55:31;;;;;;;3.90;3.42;;;;;;;;;;5075527;28;20230;-92
2023/04/29 07:58:02;;;;;;;5.55;3.60;;;;;;;;;;5077894;28;20198;-92
2023/04/29 08:00:32;;;;;;;4.25;3.90;;;;;;;;;;5077719;28;20323;-92
2023/04/29 08:03:26;;;;;;;3.72;3.42;;;;;;;;;;5073805;28;20283;-91
2023/04/29 08:06:10;;;;;;;5.07;3.80;;;;;;;;;;4991050;28;20207;-92
2023/04/29 08:09:07;;;;;;;7.43;3.38;;;;;;;;;;4941831;28;20256;-92
2023/04/29 08:11:35;;;;;;;3.78;3.45;;;;;;;;;;5073945;28;20230;-92
2023/04/29 08:14:17;;;;;;;3.97;3.50;;;;;;;;;;5073309;28;20232;-92
2023/04/29 08:16:56;;;;;;;3.17;2.75;;;;;;;;;;5073764;28;20243;-92
2023/04/29 08:22:20;;;;;;;4.20;2.58;;;;;;;;;;5069322;28;20286;-93
2023/04/29 08:28:18;;;;;;;2.80;2.60;;;;;;;;;;5074003;28;20231;-94
2023/04/29 08:31:18;;;;;;;3.67;2.50;;;;;;;;;;5075885;28;20282;-92
2023/04/29 08:52:44;;;;;;;;;;;;;;;;;;;;;
2023/04/29 08:58:26;;;;;;;3.83;2.40;;;;;;;;;;4936823;29;20622;-93
2023/04/29 09:01:28;;;;;;;;;;;;;;;;;;;;;
2023/04/29 09:04:16;;;;;;;2.80;2.60;;;;;;;;;;4954521;29;20225;-92
2023/04/29 09:06:58;;;;;;;2.78;2.47;;;;;;;;;;4956684;29;20735;-91
2023/04/29 09:19:17;;;;;;;2.70;2.50;;;;;;;;;;4995105;28;20732;-93
2023/04/29 09:25:23;;;;;;;2.33;2.22;;;;;;;;;;4929029;29;20635;-93
2023/04/29 09:28:28;;;;;;;;;;;;;;;;;;;;;
2023/04/29 09:31:16;;;;;;;3.72;2.95;;;;;;;;;;5013788;28;20200;-91
2023/04/29 09:43:22;;;;;;;4.45;3.17;;;;;;;;;;4938920;28;20194;-94
2023/04/29 09:51:53;;;;;;;3.53;2.95;;;;;;;;;;4939376;29;20214;-92
2023/04/29 09:54:54;;;;;;;;;;;;;;;;;;;;;
2023/04/29 09:57:49;;;;;;;3.42;3.22;;;;;;;;;;5002179;28;20720;-92
2023/04/29 10:00:34;;;;;;;2.55;2.42;;;;;;;;;;5013465;28;20197;-92
2023/04/29 10:06:39;;;;;;;3.78;3.05;;;;;;;;;;4970670;28;20226;-90
2023/04/29 10:12:08;;;;;;;3.00;2.80;;;;;;;;;;5071367;28;20230;-90
2023/04/29 10:14:45;;;;;;;3.90;2.10;;;;;;;;;;5072685;28;20283;-93
2023/04/29 10:17:21;;;;;;;2.58;2.38;;;;;;;;;;5072791;28;20301;-92
2023/04/29 10:19:56;;;;;;;2.55;2.20;;;;;;;;;;5073137;28;20294;-92
2023/04/29 10:22:29;;;;;;;2.60;2.50;;;;;;;;;;5077015;28;20234;-93
2023/04/29 10:25:13;;;;;;;2.63;2.50;;;;;;;;;;5079232;28;20230;-90
2023/04/29 10:27:43;;;;;;;3.42;2.15;;;;;;;;;;5075609;28;20225;-90
2023/04/29 10:30:21;;;;;;;2.83;1.95;;;;;;;;;;5081436;28;20215;-90
2023/04/29 10:33:05;;;;;;;3.25;2.72;;;;;;;;;;5084072;28;20246;-91
2023/04/29 10:38:39;;;;;;;1.73;1.63;;;;;;;;;;5072740;28;20610;-91
2023/04/29 10:41:24;;;;;;;4.60;2.03;;;;;;;;;;5074901;28;20288;-91
2023/04/29 10:43:59;;;;;;;2.15;2.05;;;;;;;;;;5073382;28;20233;-92
2023/04/29 10:46:38;;;;;;;1.90;1.80;;;;;;;;;;5072552;28;20214;-93
2023/04/29 10:49:11;;;;;;;1.70;1.60;;;;;;;;;;5072723;28;20720;-93
2023/04/29 10:51:47;;;;;;;1.95;1.85;;;;;;;;;;5073605;28;20634;-92
2023/04/29 10:54:24;;;;;;;1.60;1.60;;;;;;;;;;5073200;28;20636;-92
2023/04/29 10:57:01;;;;;;;2.15;1.95;;;;;;;;;;5073234;28;20238;-92
2023/04/29 11:06:04;;;;;;;1.75;1.60;;;;;;;;;;5092804;28;20249;-93
2023/04/29 11:08:48;;;;;;;1.50;1.50;;;;;;;;;;5053180;28;20235;-93
2023/04/29 11:11:22;;;;;;;1.00;1.00;;;;;;;;;;5055388;28;20223;-92
2023/04/29 11:13:59;;;;;;;2.38;2.15;;;;;;;;;;5054393;28;20277;-93
2023/04/29 11:16:32;;;;;;;1.75;1.65;;;;;;;;;;5053419;28;20785;-92
2023/04/29 11:19:07;;;;;;;1.30;1.25;;;;;;;;;;5056016;28;20792;-92
2023/04/29 11:21:39;;;;;;;1.20;1.20;;;;;;;;;;5051970;28;20578;-92
2023/04/29 11:24:11;;;;;;;0.82;0.82;;;;;;;;;;5053944;28;20243;-92
2023/04/29 11:26:45;;;;;;;0.65;0.65;;;;;;;;;;5052070;28;20227;-93
2023/04/29 11:29:16;;;;;;;0.95;0.95;;;;;;;;;;5060675;28;20263;-91
2023/04/29 11:31:47;;;;;;;0.70;0.70;;;;;;;;;;5068704;28;20230;-93
2023/04/29 11:34:15;;;;;;;0.70;0.70;;;;;;;;;;5065238;28;20219;-94
2023/04/29 11:36:50;;;;;;;0.65;0.65;;;;;;;;;;5057027;28;20234;-92
2023/04/29 11:39:29;;;;;;;0.77;0.77;;;;;;;;;;5069493;28;20221;-92
2023/04/29 11:42:09;;;;;;;0.70;0.70;;;;;;;;;;5071339;28;20229;-91
2023/04/29 11:44:49;;;;;;;0.88;0.88;;;;;;;;;;5072459;28;20222;-92
2023/04/29 11:47:32;;;;;;;1.58;1.08;;;;;;;;;;5070969;28;20219;-92
2023/04/29 11:50:35;;;;;;;0.98;0.98;;;;;;;;;;5071518;28;20279;-91
2023/04/29 11:53:11;;;;;;;0.65;0.60;;;;;;;;;;5072088;28;20225;-93
2023/04/29 11:55:44;;;;;;;0.88;0.88;;;;;;;;;;5074001;28;20636;-92
2023/04/29 11:58:12;;;;;;;0.60;0.60;;;;;;;;;;5073015;28;20222;-91
2023/04/29 12:03:35;;;;;;;0.63;0.63;;;;;;;;;;5067775;28;20226;-92
2023/04/29 12:06:03;;;;;;;0.85;0.60;;;;;;;;;;5072944;28;20231;-91
2023/04/29 12:08:32;;;;;;;0.70;0.70;;;;;;;;;;5059495;28;20234;-91
2023/04/29 12:11:05;;;;;;;0.90;0.90;;;;;;;;;;5064074;28;20223;-92
2023/04/29 12:13:40;;;;;;;0.73;0.63;;;;;;;;;;5066554;28;20284;-91
2023/04/29 12:16:11;;;;;;;0.57;0.57;;;;;;;;;;5068014;28;20263;-91
2023/04/29 12:18:43;;;;;;;1.52;0.98;;;;;;;;;;5065298;28;20312;-93
2023/04/29 12:21:11;;;;;;;0.55;0.55;;;;;;;;;;5060288;28;20293;-93
2023/04/29 12:23:38;;;;;;;0.60;0.60;;;;;;;;;;5054164;28;20233;-91
2023/04/29 12:26:11;;;;;;;0.80;0.75;;;;;;;;;;5054911;28;20259;-93
2023/04/29 12:28:41;;;;;;;0.70;0.70;;;;;;;;;;5054682;28;20254;-90
2023/04/29 12:31:14;;;;;;;0.95;0.95;;;;;;;;;;5056266;28;20226;-91
2023/04/29 12:33:51;;;;;;;2.13;1.00;;;;;;;;;;5056044;28;20613;-92
2023/04/29 12:36:26;;;;;;;3.22;0.80;;;;;;;;;;5061591;28;20242;-93
2023/04/29 12:39:07;;;;;;;0.80;0.80;;;;;;;;;;5079827;28;20232;-91
2023/04/29 12:41:40;;;;;;;0.70;0.70;;;;;;;;;;5078975;28;20725;-94
2023/04/29 12:44:09;;;;;;;0.88;0.88;;;;;;;;;;5087564;28;20210;-92
2023/04/29 12:46:37;;;;;;;0.73;0.73;;;;;;;;;;5077242;28;20657;-92
2023/04/29 12:49:08;;;;;;;2.22;0.60;;;;;;;;;;5073549;28;20299;-92
2023/04/29 12:51:35;;;;;;;0.70;0.70;;;;;;;;;;5073768;28;20249;-91
2023/04/29 12:54:06;;;;;;;0.65;0.65;;;;;;;;;;5070943;28;20223;-93
2023/04/29 12:56:40;;;;;;;1.00;0.68;;;;;;;;;;5075304;28;20233;-92
2023/04/29 12:59:31;;;;;;;0.90;0.60;;;;;;;;;;5075890;28;20312;-91
2023/04/29 13:02:04;;;;;;;0.65;0.65;;;;;;;;;;5075878;28;20303;-91
2023/04/29 13:04:32;;;;;;;0.77;0.77;;;;;;;;;;5076374;28;20668;-93
2023/04/29 13:07:03;;;;;;;1.83;0.70;;;;;;;;;;5088368;28;20256;-91
2023/04/29 13:09:42;;;;;;;0.73;0.73;;;;;;;;;;5095037;28;20215;-92
2023/04/29 13:12:18;;;;;;;0.50;0.50;;;;;;;;;;5088695;28;20238;-92
2023/04/29 13:14:48;;;;;;;0.80;0.80;;;;;;;;;;5067960;28;20218;-91
2023/04/29 13:17:16;;;;;;;2.05;0.55;;;;;;;;;;5079711;28;20242;-91
2023/04/29 13:19:44;;;;;;;0.70;0.70;;;;;;;;;;5073178;28;20215;-91
2023/04/29 13:22:13;;;;;;;0.75;0.47;;;;;;;;;;5073331;28;20253;-90
2023/04/29 13:24:53;;;;;;;0.50;0.50;;;;;;;;;;5061299;28;20219;-91
2023/04/29 13:30:34;;;;;;;0.60;0.60;;;;;;;;;;5072826;28;20710;-91
2023/04/29 13:33:06;;;;;;;0.45;0.45;;;;;;;;;;5072711;28;20230;-90
2023/04/29 13:38:26;;;;;;;0.50;0.50;;;;;;;;;;5044679;28;20238;-93
2023/04/29 13:41:16;;;;;;;1.63;0.70;;;;;;;;;;5095296;28;20365;-91
2023/04/29 13:44:25;;;;;;;;;;;;;;;;;;;;;
2023/04/29 13:47:00;;;;;;;0.77;0.63;;;;;;;;;;5077537;28;20226;-91
2023/04/29 13:49:32;;;;;;;0.60;0.60;;;;;;;;;;5069900;28;20226;-92
2023/04/29 13:52:02;;;;;;;0.57;0.57;;;;;;;;;;5076986;28;20226;-92
2023/04/29 13:54:31;;;;;;;0.95;0.95;;;;;;;;;;5076883;28;20222;-93
2023/04/29 13:57:01;;;;;;;0.63;0.63;;;;;;;;;;5076296;28;20236;-92
2023/04/29 13:59:35;;;;;;;4.10;0.88;;;;;;;;;;5071023;28;20238;-93
2023/04/29 14:02:08;;;;;;;0.70;0.70;;;;;;;;;;5073072;28;20642;-91
2023/04/29 14:04:37;;;;;;;0.93;0.93;;;;;;;;;;5072384;28;20685;-91
2023/04/29 14:07:22;;;;;;;1.02;1.00;;;;;;;;;;5073540;28;20229;-93
2023/04/29 14:09:51;;;;;;;1.50;1.40;;;;;;;;;;5087247;28;20253;-93
2023/04/29 14:12:20;;;;;;;6.10;3.13;;;;;;;;;;5092004;28;20225;-90
2023/04/29 14:14:56;;;;;;;4.10;1.77;;;;;;;;;;5075073;28;20218;-92
2023/04/29 14:17:26;;;;;;;1.48;1.38;;;;;;;;;;5073923;28;20265;-91
2023/04/29 14:20:09;;;;;;;1.42;1.35;;;;;;;;;;5073343;28;20228;-92
2023/04/29 14:22:38;;;;;;;0.57;0.57;;;;;;;;;;5076471;28;20372;-91
2023/04/29 14:25:08;;;;;;;1.27;1.20;;;;;;;;;;5076044;28;20229;-92
2023/04/29 14:27:48;;;;;;;0.50;0.50;;;;;;;;;;5079764;28;20221;-91
2023/04/29 14:30:31;;;;;;;2.50;0.65;;;;;;;;;;5091394;28;20230;-92
2023/04/29 14:33:36;;;;;;;;;;;;;;;;;;;;;
2023/04/29 14:36:27;;;;;;;0.70;0.70;;;;;;;;;;5055642;28;20240;-91
2023/04/29 14:39:10;;;;;;;0.75;0.75;;;;;;;;;;5052191;28;20308;-92
2023/04/29 14:41:47;;;;;;;1.60;1.50;;;;;;;;;;5054266;28;20226;-91
2023/04/29 14:44:15;;;;;;;2.67;1.70;;;;;;;;;;5051523;28;20285;-92
2023/04/29 14:46:45;;;;;;;4.75;2.63;;;;;;;;;;5047932;28;20221;-92
2023/04/29 14:49:38;;;;;;;4.82;2.38;;;;;;;;;;5052349;28;20234;-93
2023/04/29 14:52:27;;;;;;;1.40;1.30;;;;;;;;;;5056379;28;20251;-91
2023/04/29 14:55:21;;;;;;;;;;;;;;;;;;;;;
2023/04/29 15:03:54;;;;;;;4.20;2.38;;;;;;;;;;5125920;22;20264;-92
2023/04/29 15:09:22;;;;;;;1.33;1.33;;;;;;;;;;5074648;28;20272;-92
2023/04/29 15:12:13;;;;;;;2.17;1.67;;;;;;;;;;5091619;28;20217;-92
2023/04/29 15:14:41;;;;;;;2.38;1.27;;;;;;;;;;5075219;28;20231;-93
2023/04/29 15:19:57;;;;;;;1.25;1.15;;;;;;;;;;5076044;28;20287;-92
2023/04/29 15:22:29;;;;;;;1.92;1.67;;;;;;;;;;5090515;28;20225;-90
2023/04/29 15:25:10;;;;;;;2.10;1.85;;;;;;;;;;5084090;28;20230;-91
2023/04/29 15:27:52;;;;;;;2.15;2.05;;;;;;;;;;5075935;28;20226;-91
2023/04/29 15:30:34;;;;;;;1.33;1.23;;;;;;;;;;5074495;28;20226;-92
2023/04/29 15:33:04;;;;;;;1.60;1.50;;;;;;;;;;5072494;28;20246;-93
2023/04/29 15:35:33;;;;;;;3.95;2.90;;;;;;;;;;5072648;28;20430;-91
2023/04/29 15:38:01;;;;;;;2.35;2.25;;;;;;;;;;5041751;28;20242;-91
2023/04/29 15:40:42;;;;;;;2.10;1.90;;;;;;;;;;5031077;28;20230;-93
2023/04/29 15:43:15;;;;;;;2.65;1.40;;;;;;;;;;5031561;28;20844;-92
2023/04/29 15:45:44;;;;;;;1.42;1.33;;;;;;;;;;5030566;28;20224;-91
2023/04/29 15:48:12;;;;;;;1.13;1.10;;;;;;;;;;5032055;28;20676;-93
2023/04/29 15:52:26;;;;;;;1.48;1.15;;;;;;;;;;5158149;27;20551;-91
2023/04/29 15:54:59;;;;;;;3.42;1.60;;;;;;;;;;5119358;28;20222;-88
2023/04/29 15:57:40;;;;;;;;;;;;;;;;;;;;;
2023/04/29 16:03:12;;;;;;;1.85;1.75;;;;;;;;;;5130514;27;20225;-91
2023/04/29 16:08:26;;;;;;;1.55;1.45;;;;;;;;;;5132116;27;20206;-90
2023/04/29 16:10:59;;;;;;;1.38;1.38;;;;;;;;;;5124854;28;20250;-92
2023/04/29 16:13:30;;;;;;;2.75;2.55;;;;;;;;;;5110854;28;20201;-91
2023/04/29 16:15:58;;;;;;;2.78;2.65;;;;;;;;;;5111478;28;20674;-91
2023/04/29 16:18:29;;;;;;;8.52;2.58;;;;;;;;;;5110322;28;20575;-90
2023/04/29 16:21:08;;;;;;;3.70;2.22;;;;;;;;;;5116535;28;20199;-90
2023/04/29 16:23:43;;;;;;;1.85;1.83;;;;;;;;;;5117941;28;20265;-90
2023/04/29 16:32:14;;;;;;;0.98;0.98;;;;;;;;;;5112672;28;20200;-93
2023/04/29 16:35:32;;;;;;;2.00;1.90;;;;;;;;;;5119419;27;20182;-91
2023/04/29 16:38:06;;;;;;;2.70;1.63;;;;;;;;;;5126995;28;20203;-90
2023/04/29 16:40:48;;;;;;;2.53;1.88;;;;;;;;;;5131720;27;20208;-93
2023/04/29 16:43:30;;;;;;;4.00;2.45;;;;;;;;;;5126901;27;20195;-91
2023/04/29 16:49:41;;;;;;;2.03;1.65;;;;;;;;;;5090063;28;20199;-92
2023/04/29 16:58:12;;;;;;;3.38;2.28;;;;;;;;;;5118156;28;20212;-93
2023/04/29 17:04:11;;;;;;;6.22;2.45;;;;;;;;;;5103152;28;20215;-93
2023/04/29 17:06:42;;;;;;;3.87;2.03;;;;;;;;;;5098529;28;20203;-88
2023/04/29 17:09:14;;;;;;;3.17;2.23;;;;;;;;;;5098995;28;20286;-90
2023/04/29 17:11:53;;;;;;;4.67;2.80;;;;;;;;;;5100333;28;20230;-88
2023/04/29 17:14:29;;;;;;;1.50;1.40;;;;;;;;;;5105511;28;20208;-91
2023/04/29 17:16:59;;;;;;;0.90;0.90;;;;;;;;;;5102009;28;20685;-91
2023/04/29 17:26:06;;;;;;;1.10;1.10;;;;;;;;;;5070879;28;20215;-90
2023/04/29 17:29:11;;;;;;;0.87;0.87;;;;;;;;;;5097873;28;20197;-91
2023/04/29 17:35:01;;;;;;;1.37;1.27;;;;;;;;;;5090878;28;20710;-90
2023/04/29 17:41:01;;;;;;;5.30;1.10;;;;;;;;;;5089745;28;20222;-90
2023/04/29 17:44:12;;;;;;;;;;;;;;;;;;;;;
2023/04/29 17:46:54;;;;;;;1.30;1.13;;;;;;;;;;5014815;28;20285;-91
2023/04/29 17:52:12;;;;;;;4.20;2.10;;;;;;;;;;5056292;28;20304;-91
2023/04/29 17:54:47;;;;;;;1.83;1.73;;;;;;;;;;5055416;28;20608;-91
2023/04/29 17:57:17;;;;;;;1.90;1.80;;;;;;;;;;5051978;28;20675;-89
2023/04/29 17:59:45;;;;;;;1.17;0.90;;;;;;;;;;5055543;28;20265;-89
2023/04/29 18:02:17;;;;;;;3.50;1.50;;;;;;;;;;5054355;28;20223;-90
2023/04/29 18:07:34;;;;;;;1.60;1.50;;;;;;;;;;5047033;28;20227;-90
2023/04/29 18:10:06;;;;;;;2.10;1.63;;;;;;;;;;5055350;28;20707;-90
2023/04/29 18:12:34;;;;;;;1.57;1.47;;;;;;;;;;5054237;28;20234;-91